Time;durP1;ratioP1;P1;durP2;ratioP2;P2;SDS_P1;SDS_P2;PMS_P1;PMS_P2;Temp;Humidity;BMP_temperature;BMP_pressure;BME280_temperature;BME280_humidity;BME280_pressure;Samples;Min_cycle;Max_cycle;Signal;HPM_P1;HPM_P2
2023/07/12 00:00:19;;;;;;;12.23;10.73;;;23.30;67.50;;;;;;5033346;28;20455;-58
2023/07/12 00:02:45;;;;;;;10.57;9.57;;;23.30;67.80;;;;;;5032908;28;20432;-58
2023/07/12 00:05:12;;;;;;;9.80;8.80;;;23.20;68.00;;;;;;5033003;28;20499;-58
2023/07/12 00:07:39;;;;;;;9.83;8.80;;;23.20;68.40;;;;;;5033672;28;20443;-58
2023/07/12 00:10:17;;;;;;;11.63;10.20;;;23.20;68.90;;;;;;5033937;28;20457;-58
2023/07/12 00:12:44;;;;;;;11.60;9.80;;;23.20;69.60;;;;;;5033659;28;20426;-58
2023/07/12 00:15:15;;;;;;;10.43;9.07;;;23.20;70.40;;;;;;5033705;28;20551;-58
2023/07/12 00:17:42;;;;;;;10.80;8.40;;;23.20;71.90;;;;;;5033791;28;20836;-56
2023/07/12 00:20:28;;;;;;;12.50;9.23;;;23.20;72.40;;;;;;5033774;28;20449;-58
2023/07/12 00:22:56;;;;;;;10.33;9.10;;;23.20;73.80;;;;;;5033233;28;20426;-57
2023/07/12 00:25:28;;;;;;;9.83;8.83;;;23.10;75.10;;;;;;5033019;28;20476;-57
2023/07/12 00:27:55;;;;;;;9.17;8.27;;;23.10;76.50;;;;;;5035977;28;20469;-58
2023/07/12 00:30:24;;;;;;;8.93;7.00;;;23.10;77.90;;;;;;5037765;28;20437;-59
2023/07/12 00:32:53;;;;;;;9.50;8.60;;;23.10;79.60;;;;;;5037029;28;20790;-59
2023/07/12 00:35:22;;;;;;;10.90;8.10;;;23.00;81.50;;;;;;5036957;28;20833;-59
2023/07/12 00:37:51;;;;;;;10.00;8.97;;;22.90;83.60;;;;;;5036937;28;20477;-58
2023/07/12 00:40:45;;;;;;;9.40;8.50;;;22.90;85.50;;;;;;5037079;28;20445;-58
2023/07/12 00:43:20;;;;;;;9.50;8.00;;;22.90;87.20;;;;;;5035704;28;20947;-58
2023/07/12 00:45:49;;;;;;;10.30;8.17;;;22.80;89.70;;;;;;5036950;28;20467;-58
2023/07/12 00:48:17;;;;;;;8.80;7.90;;;22.80;91.00;;;;;;5036930;28;20927;-58
2023/07/12 00:50:44;;;;;;;10.03;8.20;;;22.70;91.80;;;;;;5036828;28;20449;-58
2023/07/12 00:53:14;;;;;;;10.57;8.57;;;22.70;92.60;;;;;;5036679;28;20441;-58
2023/07/12 00:56:07;;;;;;;11.03;8.80;;;22.70;93.40;;;;;;5036612;28;20457;-57
2023/07/12 00:58:37;;;;;;;8.93;7.90;;;22.70;93.50;;;;;;5037034;28;20463;-58
2023/07/12 01:01:06;;;;;;;9.67;8.67;;;22.70;93.70;;;;;;5036184;28;20966;-57
2023/07/12 01:03:35;;;;;;;9.50;8.50;;;22.70;93.80;;;;;;5036240;28;20958;-57
2023/07/12 01:06:03;;;;;;;9.57;8.23;;;22.70;94.00;;;;;;5036566;28;20484;-58
2023/07/12 01:08:31;;;;;;;11.07;8.30;;;22.70;94.10;;;;;;5036429;28;20499;-58
2023/07/12 01:11:01;;;;;;;9.47;8.50;;;22.70;94.20;;;;;;5036361;28;20448;-58
2023/07/12 01:13:31;;;;;;;9.00;7.60;;;22.70;94.50;;;;;;5036783;28;20457;-58
2023/07/12 01:16:00;;;;;;;8.80;7.60;;;22.70;94.70;;;;;;5036208;28;20476;-58
2023/07/12 01:18:27;;;;;;;10.43;8.67;;;22.70;95.00;;;;;;5036097;28;20488;-58
2023/07/12 01:21:10;;;;;;;8.63;7.83;;;22.70;95.10;;;;;;5035768;28;20790;-58
2023/07/12 01:23:39;;;;;;;10.17;8.80;;;22.80;94.90;;;;;;5036068;28;20425;-58
2023/07/12 01:26:22;;;;;;;9.10;7.73;;;22.80;94.80;;;;;;5036338;28;20825;-58
2023/07/12 01:28:52;;;;;;;10.70;7.10;;;22.80;94.80;;;;;;5036911;28;20448;-59
2023/07/12 01:31:19;;;;;;;7.43;6.73;;;22.90;95.00;;;;;;5036225;28;20908;-58
2023/07/12 01:33:45;;;;;;;8.00;7.10;;;22.90;95.30;;;;;;5035941;28;20453;-58
2023/07/12 01:36:14;;;;;;;8.27;7.37;;;22.90;94.60;;;;;;5035833;28;20465;-57
2023/07/12 01:38:40;;;;;;;6.97;6.23;;;22.90;93.70;;;;;;5034986;28;20454;-59
2023/07/12 01:41:07;;;;;;;8.07;7.17;;;23.00;93.00;;;;;;5035892;28;20441;-59
2023/07/12 01:43:34;;;;;;;7.30;5.73;;;23.00;92.90;;;;;;5035829;28;20536;-59
2023/07/12 01:46:01;;;;;;;8.30;6.67;;;22.80;94.20;;;;;;5035779;28;20472;-58
2023/07/12 01:48:28;;;;;;;8.80;6.50;;;22.50;96.70;;;;;;5035903;28;20440;-58
2023/07/12 01:50:55;;;;;;;9.43;6.87;;;22.00;99.90;;;;;;5035673;28;20451;-58
2023/07/12 01:53:23;;;;;;;8.43;6.53;;;21.70;99.90;;;;;;5035658;28;20454;-57
2023/07/12 01:55:51;;;;;;;7.30;5.90;;;21.40;99.90;;;;;;5035254;28;20472;-57
2023/07/12 01:58:17;;;;;;;9.83;6.63;;;21.20;99.90;;;;;;5035202;28;20491;-57
2023/07/12 02:00:44;;;;;;;8.53;6.50;;;21.10;99.90;;;;;;5034989;28;20845;-58
2023/07/12 02:03:11;;;;;;;10.27;6.40;;;20.90;99.90;;;;;;5035274;28;20454;-57
2023/07/12 02:05:38;;;;;;;7.40;6.40;;;20.80;99.90;;;;;;5034981;28;20482;-58
2023/07/12 02:08:05;;;;;;;7.97;5.87;;;20.80;99.90;;;;;;5035179;28;20423;-57
2023/07/12 02:10:33;;;;;;;8.17;5.60;;;20.70;99.90;;;;;;5035099;28;20455;-57
2023/07/12 02:13:00;;;;;;;7.03;5.60;;;20.60;99.90;;;;;;5035116;28;20454;-57
2023/07/12 02:15:27;;;;;;;8.80;5.83;;;20.50;99.90;;;;;;5034669;28;20578;-57
2023/07/12 02:17:53;;;;;;;8.40;6.73;;;20.40;99.90;;;;;;5034863;28;20483;-56
2023/07/12 02:20:20;;;;;;;7.43;5.77;;;20.40;99.90;;;;;;5034934;28;20484;-56
2023/07/12 02:22:49;;;;;;;7.63;5.83;;;20.30;99.90;;;;;;5034747;28;20447;-57
2023/07/12 02:25:16;;;;;;;6.33;5.37;;;20.20;99.90;;;;;;5034807;28;20468;-57
2023/07/12 02:27:44;;;;;;;5.93;5.33;;;20.10;99.90;;;;;;5034924;28;20449;-56
2023/07/12 02:30:14;;;;;;;8.23;4.73;;;20.10;99.90;;;;;;5034510;28;20932;-57
2023/07/12 02:32:40;;;;;;;7.70;5.27;;;20.10;99.90;;;;;;5034818;28;20455;-56
2023/07/12 02:35:08;;;;;;;10.73;4.67;;;20.00;99.90;;;;;;5034760;28;20485;-57
2023/07/12 02:37:35;;;;;;;5.53;5.00;;;20.00;99.90;;;;;;5034750;28;20546;-56
2023/07/12 02:40:02;;;;;;;5.23;4.53;;;20.00;99.90;;;;;;5034331;28;20444;-59
2023/07/12 02:42:29;;;;;;;4.83;4.37;;;19.90;99.90;;;;;;5034731;28;20455;-58
2023/07/12 02:44:57;;;;;;;5.90;3.90;;;19.90;99.90;;;;;;5034407;28;20482;-58
2023/07/12 02:47:24;;;;;;;5.50;4.20;;;19.90;99.90;;;;;;5034471;28;20453;-58
2023/07/12 02:49:51;;;;;;;4.30;3.63;;;19.90;99.90;;;;;;5034139;28;20448;-58
2023/07/12 02:52:18;;;;;;;4.70;3.53;;;19.80;99.90;;;;;;5033939;28;20462;-59
2023/07/12 02:54:45;;;;;;;5.23;3.60;;;19.80;99.90;;;;;;5034760;28;20466;-59
2023/07/12 02:57:16;;;;;;;6.13;3.90;;;19.80;99.90;;;;;;5034547;28;21015;-56
2023/07/12 02:59:43;;;;;;;5.00;4.50;;;19.80;99.90;;;;;;5035212;28;20442;-58
2023/07/12 03:02:13;;;;;;;6.90;4.53;;;19.70;99.90;;;;;;5035061;28;20446;-60
2023/07/12 03:04:40;;;;;;;6.83;5.07;;;19.70;99.90;;;;;;5034936;28;20451;-59
2023/07/12 03:07:07;;;;;;;7.27;4.70;;;19.70;99.90;;;;;;5034024;28;20455;-60
2023/07/12 03:09:34;;;;;;;6.10;4.40;;;19.70;99.90;;;;;;5034874;28;20453;-59
2023/07/12 03:12:01;;;;;;;9.53;4.97;;;19.70;99.90;;;;;;5034961;28;20455;-59
2023/07/12 03:14:28;;;;;;;5.70;4.90;;;19.70;99.90;;;;;;5034708;28;20443;-58
2023/07/12 03:16:55;;;;;;;5.57;4.70;;;19.60;99.90;;;;;;5034711;28;20478;-59
2023/07/12 03:19:23;;;;;;;5.17;4.67;;;19.60;99.90;;;;;;5034373;28;20562;-59
2023/07/12 03:21:50;;;;;;;4.90;4.30;;;19.60;99.90;;;;;;5034041;28;20446;-58
2023/07/12 03:24:17;;;;;;;8.70;5.07;;;19.50;99.90;;;;;;5033821;28;20442;-59
2023/07/12 03:26:44;;;;;;;4.93;4.30;;;19.50;99.90;;;;;;5033741;28;20465;-59
2023/07/12 03:29:11;;;;;;;6.03;4.43;;;19.50;99.90;;;;;;5033861;28;20430;-58
2023/07/12 03:31:37;;;;;;;5.17;4.67;;;19.40;99.90;;;;;;5033737;28;20449;-59
2023/07/12 03:34:04;;;;;;;5.33;4.00;;;19.40;99.90;;;;;;5033888;28;20439;-58
2023/07/12 03:36:33;;;;;;;5.00;4.50;;;19.40;99.90;;;;;;5033883;28;20462;-58
2023/07/12 03:39:00;;;;;;;7.00;4.20;;;19.40;99.90;;;;;;5034341;28;20509;-58
2023/07/12 03:41:27;;;;;;;6.87;4.67;;;19.40;99.90;;;;;;5033582;28;20453;-59
2023/07/12 03:43:54;;;;;;;5.43;4.17;;;19.40;99.90;;;;;;5033919;28;20450;-59
2023/07/12 03:46:21;;;;;;;4.40;4.00;;;19.50;99.90;;;;;;5033849;28;20473;-57
2023/07/12 03:48:48;;;;;;;4.40;4.00;;;19.50;99.90;;;;;;5033947;28;20438;-60
2023/07/12 03:51:17;;;;;;;4.03;3.30;;;19.50;99.90;;;;;;5034222;28;20455;-59
2023/07/12 03:53:46;;;;;;;5.23;4.23;;;19.60;99.90;;;;;;5034435;28;20450;-59
2023/07/12 03:56:13;;;;;;;4.20;3.67;;;19.60;99.90;;;;;;5035089;28;20795;-59
2023/07/12 03:58:41;;;;;;;3.93;3.53;;;19.60;99.90;;;;;;5034157;28;20478;-60
2023/07/12 04:01:10;;;;;;;5.03;3.10;;;19.60;99.90;;;;;;5034037;28;20867;-60
2023/07/12 04:03:38;;;;;;;4.50;3.80;;;19.60;99.90;;;;;;5033399;28;20820;-60
2023/07/12 04:06:06;;;;;;;3.77;3.10;;;19.70;99.90;;;;;;5033211;28;20573;-59
2023/07/12 04:11:58;;;;;;;6.20;3.83;;;19.80;99.90;;;;;;5091597;28;20609;-59
2023/07/12 04:14:25;;;;;;;3.30;2.80;;;19.80;99.90;;;;;;5090929;28;20440;-59
2023/07/12 04:16:52;;;;;;;4.00;3.60;;;19.70;99.90;;;;;;5091171;28;20471;-59
2023/07/12 04:19:19;;;;;;;8.83;3.53;;;19.80;99.90;;;;;;5091418;28;20444;-58
2023/07/12 04:21:45;;;;;;;3.70;3.10;;;19.70;99.90;;;;;;5091380;28;20445;-58
2023/07/12 04:24:12;;;;;;;8.03;4.90;;;19.70;99.90;;;;;;5091132;28;20933;-58
2023/07/12 04:26:39;;;;;;;4.17;3.13;;;19.70;99.90;;;;;;5091366;28;20463;-59
2023/07/12 04:29:07;;;;;;;4.10;3.00;;;19.70;99.90;;;;;;5092776;28;20452;-59
2023/07/12 04:31:34;;;;;;;5.70;3.60;;;19.80;99.90;;;;;;5091172;28;20472;-60
2023/07/12 04:34:00;;;;;;;3.67;3.00;;;19.80;99.90;;;;;;5091034;28;20448;-59
2023/07/12 04:36:27;;;;;;;8.37;3.10;;;19.80;99.90;;;;;;5090989;28;20472;-59
2023/07/12 04:38:54;;;;;;;3.67;3.30;;;19.80;99.90;;;;;;5091180;28;20455;-59
2023/07/12 04:41:21;;;;;;;4.17;3.77;;;19.80;99.90;;;;;;5090690;28;20444;-58
2023/07/12 04:43:47;;;;;;;3.17;2.93;;;19.90;99.90;;;;;;5090527;28;20452;-58
2023/07/12 04:46:16;;;;;;;3.20;2.90;;;19.80;99.90;;;;;;5090719;28;20460;-58
2023/07/12 04:48:42;;;;;;;3.20;2.90;;;19.90;99.90;;;;;;5090503;28;20446;-59
2023/07/12 04:51:09;;;;;;;3.30;2.60;;;19.90;99.90;;;;;;5090513;28;20487;-58
2023/07/12 04:53:36;;;;;;;5.23;2.73;;;19.90;99.90;;;;;;5090381;28;20446;-59
2023/07/12 04:56:03;;;;;;;5.40;2.60;;;20.00;99.90;;;;;;5090182;28;20472;-59
2023/07/12 04:58:30;;;;;;;6.23;2.63;;;20.00;99.90;;;;;;5090038;28;20447;-59
2023/07/12 05:00:58;;;;;;;2.80;2.23;;;20.00;99.90;;;;;;5089498;28;20447;-58
2023/07/12 05:03:26;;;;;;;3.53;2.43;;;20.10;99.90;;;;;;5089648;28;20440;-58
2023/07/12 05:05:53;;;;;;;2.80;2.43;;;20.20;99.90;;;;;;5089700;28;20473;-58
2023/07/12 05:08:19;;;;;;;4.00;2.00;;;20.30;99.90;;;;;;5089560;28;20445;-58
2023/07/12 05:10:46;;;;;;;2.67;1.80;;;20.30;99.90;;;;;;5089387;28;20490;-57
2023/07/12 05:13:13;;;;;;;2.50;1.60;;;20.30;99.90;;;;;;5089979;28;20452;-59
2023/07/12 05:15:40;;;;;;;1.87;1.43;;;20.30;99.90;;;;;;5089908;28;20472;-57
2023/07/12 05:18:07;;;;;;;3.67;1.97;;;20.30;99.90;;;;;;5089561;28;20444;-58
2023/07/12 05:20:37;;;;;;;2.10;1.70;;;20.20;99.90;;;;;;5089179;28;20782;-58
2023/07/12 05:23:04;;;;;;;2.30;1.57;;;20.20;99.90;;;;;;5077822;28;20449;-60
2023/07/12 05:25:31;;;;;;;2.47;1.73;;;20.30;99.90;;;;;;5075891;28;20998;-58
2023/07/12 05:27:57;;;;;;;1.77;1.50;;;20.30;99.90;;;;;;5076081;28;20444;-59
2023/07/12 05:30:24;;;;;;;2.90;1.50;;;20.30;99.90;;;;;;5076047;28;20515;-58
2023/07/12 05:32:52;;;;;;;2.63;1.70;;;20.50;99.90;;;;;;5076190;28;20456;-59
2023/07/12 05:35:19;;;;;;;4.50;1.90;;;20.60;99.90;;;;;;5077548;28;20999;-59
2023/07/12 05:37:48;;;;;;;2.37;1.83;;;20.80;99.90;;;;;;5075846;28;20533;-59
2023/07/12 05:40:15;;;;;;;3.93;1.70;;;21.10;99.90;;;;;;5075823;28;20442;-60
2023/07/12 05:42:41;;;;;;;1.50;1.40;;;21.20;99.90;;;;;;5075913;28;20450;-59
2023/07/12 05:45:10;;;;;;;2.83;1.80;;;21.40;99.90;;;;;;5075821;28;20996;-60
2023/07/12 05:47:37;;;;;;;2.23;1.50;;;21.50;99.90;;;;;;5076128;28;20457;-60
2023/07/12 05:50:06;;;;;;;2.20;1.73;;;21.50;99.90;;;;;;5075439;28;20451;-59
2023/07/12 05:52:33;;;;;;;1.67;1.27;;;21.60;99.90;;;;;;5075127;28;20813;-58
2023/07/12 05:55:01;;;;;;;2.17;1.50;;;21.90;99.90;;;;;;5075313;28;20495;-59
2023/07/12 05:57:28;;;;;;;2.90;1.80;;;22.00;99.90;;;;;;5074981;28;20815;-59
2023/07/12 05:59:54;;;;;;;2.90;2.00;;;21.80;99.90;;;;;;5075493;28;20443;-59
2023/07/12 06:02:21;;;;;;;4.70;2.20;;;21.50;99.90;;;;;;5075014;28;20952;-59
2023/07/12 06:04:48;;;;;;;3.10;1.70;;;21.30;99.90;;;;;;5075109;28;20457;-59
2023/07/12 06:07:15;;;;;;;6.00;1.80;;;21.10;99.90;;;;;;5074772;28;20486;-58
2023/07/12 06:09:42;;;;;;;3.10;1.83;;;21.00;99.90;;;;;;5074559;28;20451;-57
2023/07/12 06:12:11;;;;;;;1.80;1.60;;;21.00;99.90;;;;;;5074662;28;20466;-58
2023/07/12 06:14:38;;;;;;;4.63;2.70;;;21.10;99.90;;;;;;5074761;28;20451;-59
2023/07/12 06:17:06;;;;;;;4.23;2.50;;;21.20;99.90;;;;;;5075213;28;20442;-58
2023/07/12 06:19:33;;;;;;;5.00;1.90;;;21.40;99.90;;;;;;5074911;28;20447;-57
2023/07/12 06:22:00;;;;;;;2.73;1.50;;;21.80;99.90;;;;;;5075043;28;20442;-58
2023/07/12 06:24:26;;;;;;;3.03;1.53;;;22.00;98.90;;;;;;5075030;28;20458;-57
2023/07/12 06:26:53;;;;;;;1.70;1.20;;;22.30;97.20;;;;;;5076090;28;20466;-57
2023/07/12 06:29:21;;;;;;;2.80;1.53;;;22.50;96.30;;;;;;5075616;28;20534;-57
2023/07/12 06:31:48;;;;;;;2.83;1.70;;;22.90;95.10;;;;;;5076943;28;20467;-58
2023/07/12 06:34:15;;;;;;;1.90;1.40;;;23.00;93.30;;;;;;5073591;28;20443;-57
2023/07/12 06:36:42;;;;;;;2.83;1.37;;;23.00;91.40;;;;;;5074621;28;20463;-58
2023/07/12 06:39:09;;;;;;;2.90;1.87;;;23.10;90.90;;;;;;5075008;28;20450;-59
2023/07/12 06:41:35;;;;;;;2.07;1.60;;;23.20;89.10;;;;;;5075114;28;20435;-58
2023/07/12 06:44:02;;;;;;;4.90;2.20;;;23.40;85.60;;;;;;5077906;28;20518;-58
2023/07/12 06:46:30;;;;;;;1.70;1.20;;;23.60;83.30;;;;;;5074378;28;20463;-58
2023/07/12 06:48:57;;;;;;;1.53;1.20;;;23.70;81.00;;;;;;5074508;28;20439;-58
2023/07/12 06:51:24;;;;;;;1.70;1.17;;;23.80;79.20;;;;;;5073982;28;20849;-60
2023/07/12 06:53:51;;;;;;;3.20;1.27;;;23.90;76.90;;;;;;5074649;28;20813;-59
2023/07/12 06:56:18;;;;;;;2.20;1.00;;;23.90;74.60;;;;;;5074051;28;20481;-57
2023/07/12 06:58:44;;;;;;;1.40;1.20;;;23.90;73.00;;;;;;5076171;28;20451;-58
2023/07/12 07:01:12;;;;;;;1.70;1.10;;;23.80;71.90;;;;;;5079760;28;20440;-60
2023/07/12 07:03:40;;;;;;;2.30;1.00;;;23.80;70.70;;;;;;5077150;28;20471;-60
2023/07/12 07:06:07;;;;;;;3.20;1.20;;;23.60;69.10;;;;;;5070475;22;20501;-57
2023/07/12 07:08:33;;;;;;;1.40;1.20;;;23.40;68.50;;;;;;5034849;28;20447;-57
2023/07/12 07:11:02;;;;;;;2.43;1.07;;;23.10;68.80;;;;;;5033769;28;20476;-58
2023/07/12 07:13:29;;;;;;;2.57;1.10;;;23.00;69.30;;;;;;5034711;28;20484;-59
2023/07/12 07:15:56;;;;;;;3.30;1.20;;;23.00;69.40;;;;;;5033965;28;20473;-59
2023/07/12 07:18:23;;;;;;;1.40;0.90;;;23.00;69.10;;;;;;5033799;28;20817;-58
2023/07/12 07:20:52;;;;;;;1.00;0.87;;;23.00;68.60;;;;;;5034148;28;20437;-58
2023/07/12 07:23:19;;;;;;;1.93;1.10;;;23.10;68.50;;;;;;5034571;28;20449;-57
2023/07/12 07:25:47;;;;;;;1.60;0.90;;;23.10;67.80;;;;;;5034273;28;20461;-55
2023/07/12 07:28:13;;;;;;;1.97;1.03;;;23.30;66.90;;;;;;5033868;28;20456;-57
2023/07/12 07:30:40;;;;;;;1.03;0.70;;;23.30;64.10;;;;;;5034309;28;20475;-57
2023/07/12 07:33:07;;;;;;;0.87;0.60;;;23.20;63.10;;;;;;5034677;28;20786;-56
2023/07/12 07:35:34;;;;;;;2.03;0.80;;;23.10;62.00;;;;;;5034754;28;20488;-59
2023/07/12 07:38:02;;;;;;;1.20;0.70;;;23.00;61.10;;;;;;5034469;28;20943;-58
2023/07/12 07:40:29;;;;;;;1.10;0.90;;;22.80;61.20;;;;;;5035174;28;20468;-58
2023/07/12 07:42:58;;;;;;;1.90;0.97;;;22.70;61.50;;;;;;5034510;28;20441;-57
2023/07/12 07:45:25;;;;;;;2.00;0.73;;;22.70;61.40;;;;;;5033985;28;20471;-58
2023/07/12 07:47:52;;;;;;;1.00;0.70;;;22.60;61.40;;;;;;5034429;28;20450;-57
2023/07/12 07:50:20;;;;;;;2.00;0.80;;;22.60;61.50;;;;;;5034477;28;20453;-59
2023/07/12 07:52:47;;;;;;;2.27;0.90;;;22.70;61.80;;;;;;5034085;28;20485;-57
2023/07/12 07:55:15;;;;;;;1.37;1.03;;;22.70;62.10;;;;;;5034151;28;20489;-58
2023/07/12 07:57:42;;;;;;;1.93;1.00;;;22.70;62.40;;;;;;5034162;28;20453;-58
2023/07/12 08:00:10;;;;;;;1.40;1.00;;;22.80;62.60;;;;;;5033797;28;20448;-57
2023/07/12 08:02:37;;;;;;;2.93;1.20;;;22.80;62.70;;;;;;5034017;28;20520;-57
2023/07/12 08:05:04;;;;;;;1.17;0.90;;;22.80;63.00;;;;;;5032621;28;20454;-58
2023/07/12 08:07:38;;;;;;;1.80;0.90;;;22.90;63.10;;;;;;5033398;28;20433;-59
2023/07/12 08:10:05;;;;;;;1.10;0.80;;;22.80;64.00;;;;;;5034520;28;20528;-59
2023/07/12 08:12:33;;;;;;;2.40;1.00;;;22.90;63.50;;;;;;5034012;28;20491;-58
2023/07/12 08:15:00;;;;;;;1.97;0.90;;;23.10;63.10;;;;;;5033359;28;20970;-58
2023/07/12 08:17:27;;;;;;;1.10;0.77;;;23.10;62.70;;;;;;5033531;28;20437;-57
2023/07/12 08:19:54;;;;;;;0.90;0.63;;;23.30;62.50;;;;;;5033354;28;20448;-57
2023/07/12 08:22:21;;;;;;;1.13;0.73;;;23.40;62.20;;;;;;5033279;28;20448;-58
2023/07/12 08:24:47;;;;;;;1.33;0.87;;;23.30;61.80;;;;;;5033250;28;20448;-56
2023/07/12 08:27:16;;;;;;;1.17;0.70;;;23.20;62.10;;;;;;5034002;28;20456;-58
2023/07/12 08:29:44;;;;;;;1.10;0.93;;;23.20;62.30;;;;;;5033751;28;20520;-58
2023/07/12 08:32:11;;;;;;;3.37;1.03;;;23.40;62.30;;;;;;5033196;28;20477;-58
2023/07/12 08:34:38;;;;;;;2.30;0.97;;;23.70;61.80;;;;;;5033404;28;20446;-59
2023/07/12 08:37:06;;;;;;;2.00;1.23;;;23.80;61.30;;;;;;5032798;28;20975;-58
2023/07/12 08:39:33;;;;;;;4.20;1.07;;;23.70;60.50;;;;;;5033201;28;20451;-58
2023/07/12 08:42:00;;;;;;;1.43;1.30;;;23.60;60.80;;;;;;5033400;28;20806;-58
2023/07/12 08:44:27;;;;;;;1.10;0.90;;;23.40;61.40;;;;;;5033602;28;20969;-59
2023/07/12 08:46:57;;;;;;;1.23;1.13;;;23.20;61.80;;;;;;5033170;28;20811;-58
2023/07/12 08:49:25;;;;;;;2.13;1.53;;;23.10;62.20;;;;;;5033539;28;20434;-59
2023/07/12 08:51:57;;;;;;;1.80;1.70;;;23.10;62.50;;;;;;5034149;28;21037;-58
2023/07/12 08:54:33;;;;;;;2.70;2.20;;;23.00;63.20;;;;;;5035525;28;20444;-58
2023/07/12 08:57:15;;;;;;;2.20;2.00;;;22.90;62.50;;;;;;5036877;28;20579;-58
2023/07/12 08:59:43;;;;;;;1.87;1.77;;;22.90;62.80;;;;;;5040084;28;20441;-58
2023/07/12 09:02:19;;;;;;;2.30;2.10;;;22.70;62.80;;;;;;5040666;28;20452;-58
2023/07/12 09:04:46;;;;;;;2.63;2.30;;;22.80;63.30;;;;;;5039962;28;20452;-57
2023/07/12 09:07:22;;;;;;;3.30;2.43;;;22.90;63.50;;;;;;5039389;28;20547;-58
2023/07/12 09:09:49;;;;;;;2.20;2.00;;;23.00;63.50;;;;;;5038061;28;20437;-58
2023/07/12 09:12:27;;;;;;;4.00;2.30;;;23.10;63.20;;;;;;5038530;28;20476;-58
2023/07/12 09:14:57;;;;;;;2.57;2.37;;;23.20;62.80;;;;;;5037261;28;20476;-57
2023/07/12 09:17:28;;;;;;;2.80;2.50;;;23.30;62.70;;;;;;5037687;28;20437;-58
2023/07/12 09:19:55;;;;;;;2.77;2.57;;;23.30;62.20;;;;;;5038389;28;20793;-58
2023/07/12 09:22:23;;;;;;;2.80;2.60;;;23.20;62.10;;;;;;5037175;28;20814;-58
2023/07/12 09:24:53;;;;;;;2.80;2.60;;;23.10;62.50;;;;;;5037722;28;20445;-58
2023/07/12 09:27:23;;;;;;;2.90;2.43;;;23.10;62.80;;;;;;5037641;28;20446;-58
2023/07/12 09:29:59;;;;;;;4.33;2.90;;;23.10;62.80;;;;;;5037459;28;20448;-58
2023/07/12 09:32:31;;;;;;;2.40;2.20;;;23.30;62.80;;;;;;5037270;28;20475;-58
2023/07/12 09:34:58;;;;;;;2.60;2.40;;;23.60;62.30;;;;;;5037482;28;20441;-58
2023/07/12 09:37:25;;;;;;;2.30;2.07;;;23.90;61.50;;;;;;5037224;28;20954;-59
2023/07/12 09:39:57;;;;;;;3.00;2.70;;;24.10;61.20;;;;;;5037365;28;20484;-59
2023/07/12 09:42:24;;;;;;;2.27;2.07;;;24.20;60.40;;;;;;5037512;28;20442;-58
2023/07/12 09:44:51;;;;;;;3.60;2.07;;;24.30;60.00;;;;;;5037268;28;20461;-58
2023/07/12 09:47:38;;;;;;;1.93;1.70;;;24.30;59.80;;;;;;5036776;28;21002;-58
2023/07/12 09:50:14;;;;;;;2.37;2.17;;;24.30;59.60;;;;;;5037040;28;20438;-58
2023/07/12 09:53:00;;;;;;;2.27;2.07;;;24.10;59.50;;;;;;5037152;28;20465;-58
2023/07/12 09:55:35;;;;;;;2.73;2.53;;;23.90;59.80;;;;;;5036836;28;20450;-59
2023/07/12 09:58:09;;;;;;;3.90;2.27;;;23.80;60.30;;;;;;5036970;28;20428;-58
2023/07/12 10:00:42;;;;;;;2.70;2.03;;;23.80;60.50;;;;;;5036776;28;20542;-58
2023/07/12 10:03:16;;;;;;;2.30;2.10;;;23.90;60.30;;;;;;5036658;28;20432;-60
2023/07/12 10:05:48;;;;;;;3.27;1.97;;;24.20;60.90;;;;;;5036528;28;20503;-59
2023/07/12 10:08:17;;;;;;;2.20;1.90;;;24.50;59.70;;;;;;5036753;28;20899;-58
2023/07/12 10:10:50;;;;;;;2.20;2.00;;;24.50;59.20;;;;;;5037355;28;20450;-59
2023/07/12 10:13:37;;;;;;;2.13;1.93;;;24.30;59.30;;;;;;5037083;28;20469;-59
2023/07/12 10:16:09;;;;;;;1.90;1.80;;;24.10;59.90;;;;;;5037971;28;20469;-62
2023/07/12 10:18:38;;;;;;;2.40;2.20;;;23.80;60.30;;;;;;5037047;28;20437;-58
2023/07/12 10:21:06;;;;;;;5.30;2.33;;;23.70;61.00;;;;;;5036868;28;20453;-59
2023/07/12 10:23:42;;;;;;;2.20;1.70;;;23.70;61.00;;;;;;5036768;28;20477;-57
2023/07/12 10:26:13;;;;;;;3.77;2.13;;;24.00;60.40;;;;;;5036672;28;20472;-58
2023/07/12 10:28:44;;;;;;;3.93;1.60;;;24.30;59.50;;;;;;5036645;28;20441;-58
2023/07/12 10:31:22;;;;;;;3.70;1.90;;;24.60;58.70;;;;;;5036972;28;20449;-59
2023/07/12 10:33:54;;;;;;;2.70;1.80;;;24.70;58.20;;;;;;5035921;28;20481;-59
2023/07/12 10:36:26;;;;;;;2.57;2.00;;;24.60;57.90;;;;;;5036382;28;20997;-56
2023/07/12 10:38:53;;;;;;;3.23;1.80;;;24.60;57.80;;;;;;5035366;28;20429;-58
2023/07/12 10:41:25;;;;;;;2.17;1.40;;;24.60;57.40;;;;;;5035398;28;20537;-59
2023/07/12 10:44:02;;;;;;;4.17;1.83;;;24.80;56.70;;;;;;5035871;28;20437;-58
2023/07/12 10:46:33;;;;;;;4.50;1.43;;;24.70;55.70;;;;;;5036161;28;20465;-58
2023/07/12 10:49:04;;;;;;;2.80;1.67;;;24.80;55.20;;;;;;5035298;28;20434;-60
2023/07/12 10:51:36;;;;;;;1.87;1.40;;;24.70;54.90;;;;;;5036171;28;20429;-59
2023/07/12 10:54:04;;;;;;;2.17;1.50;;;24.80;54.90;;;;;;5035368;28;20422;-60
2023/07/12 10:56:35;;;;;;;2.50;2.10;;;25.10;54.90;;;;;;5035481;28;20885;-58
2023/07/12 10:59:04;;;;;;;2.80;1.50;;;25.30;54.20;;;;;;5036132;28;20907;-59
2023/07/12 11:01:52;;;;;;;1.80;1.67;;;25.60;53.80;;;;;;5035752;28;20448;-58
2023/07/12 11:04:26;;;;;;;4.03;1.90;;;25.80;53.40;;;;;;5035431;28;20777;-58
2023/07/12 11:06:59;;;;;;;2.17;1.70;;;26.10;52.80;;;;;;5034967;28;20511;-59
2023/07/12 11:10:19;;;;;;;1.83;1.60;;;26.30;52.10;;;;;;5035286;28;20433;-59
2023/07/12 11:12:53;;;;;;;3.27;1.80;;;26.50;50.20;;;;;;4993573;28;20485;-59
2023/07/12 11:15:23;;;;;;;2.80;1.30;;;26.60;49.20;;;;;;4994350;28;20486;-59
2023/07/12 11:18:01;;;;;;;2.00;1.40;;;26.70;48.40;;;;;;5016502;28;20453;-60
2023/07/12 11:20:32;;;;;;;3.37;1.43;;;26.70;46.50;;;;;;5036237;28;20436;-58
2023/07/12 11:23:21;;;;;;;3.70;1.50;;;26.50;46.30;;;;;;5035052;28;20872;-59
2023/07/12 11:26:01;;;;;;;3.63;1.30;;;26.50;46.70;;;;;;5034862;28;20519;-58
2023/07/12 11:28:39;;;;;;;4.60;1.60;;;26.70;46.50;;;;;;5034476;28;20798;-59
2023/07/12 11:31:30;;;;;;;2.80;1.20;;;26.70;46.40;;;;;;5035127;28;20425;-59
2023/07/12 11:34:05;;;;;;;3.23;1.43;;;26.60;46.70;;;;;;5032631;28;20492;-59
2023/07/12 11:36:35;;;;;;;1.97;1.30;;;26.40;46.90;;;;;;5035076;28;20485;-59
2023/07/12 11:39:04;;;;;;;3.30;1.47;;;26.30;47.30;;;;;;5034666;28;20460;-58
2023/07/12 11:41:33;;;;;;;2.67;1.30;;;26.20;47.70;;;;;;5035184;28;20449;-61
2023/07/12 11:44:01;;;;;;;4.23;1.77;;;25.90;47.30;;;;;;5034825;28;20449;-57
2023/07/12 11:46:34;;;;;;;3.40;1.50;;;25.70;47.10;;;;;;5035042;28;20465;-59
2023/07/12 11:49:12;;;;;;;8.17;1.80;;;25.50;46.90;;;;;;5034533;28;20425;-58
2023/07/12 11:51:41;;;;;;;3.27;2.03;;;25.60;46.50;;;;;;5035050;28;20430;-58
2023/07/12 11:54:18;;;;;;;2.67;1.30;;;25.70;46.00;;;;;;5034153;28;20855;-58
2023/07/12 11:56:48;;;;;;;1.80;1.43;;;25.80;45.70;;;;;;5034954;28;20504;-61
2023/07/12 11:59:16;;;;;;;2.50;1.70;;;26.00;45.70;;;;;;5035018;28;20444;-61
2023/07/12 12:01:44;;;;;;;4.23;1.53;;;26.40;45.40;;;;;;5035108;28;20804;-60
2023/07/12 12:04:20;;;;;;;3.80;2.10;;;26.60;45.00;;;;;;5034688;28;20437;-60
2023/07/12 12:06:47;;;;;;;3.63;1.83;;;27.30;44.10;;;;;;5034312;28;20476;-59
2023/07/12 12:09:14;;;;;;;4.60;2.50;;;27.60;43.40;;;;;;5034682;28;20966;-61
2023/07/12 12:11:41;;;;;;;2.80;2.00;;;27.40;44.40;;;;;;5034479;28;20449;-60
2023/07/12 12:14:19;;;;;;;2.17;1.90;;;27.10;45.50;;;;;;5034411;28;20485;-60
2023/07/12 12:16:53;;;;;;;3.03;1.97;;;27.20;45.90;;;;;;5034019;28;20471;-59
2023/07/12 12:19:21;;;;;;;6.00;2.20;;;27.40;45.70;;;;;;5034297;28;20430;-59
2023/07/12 12:21:50;;;;;;;3.20;1.90;;;27.60;45.30;;;;;;5035510;28;20453;-56
2023/07/12 12:24:19;;;;;;;2.00;1.87;;;27.50;45.00;;;;;;5034658;28;20441;-61
2023/07/12 12:26:47;;;;;;;2.20;2.00;;;27.40;45.00;;;;;;5035183;28;20465;-61
2023/07/12 12:29:18;;;;;;;4.43;2.87;;;27.60;44.40;;;;;;5035489;28;20456;-60
2023/07/12 12:31:53;;;;;;;3.67;1.93;;;27.70;44.00;;;;;;5036239;28;20437;-60
2023/07/12 12:34:22;;;;;;;4.23;1.70;;;28.30;43.10;;;;;;5040497;28;20538;-59
2023/07/12 12:37:00;;;;;;;2.90;1.80;;;28.60;42.20;;;;;;5043180;28;20990;-60
2023/07/12 12:39:27;;;;;;;2.77;2.00;;;28.30;42.30;;;;;;5044782;28;20445;-60
2023/07/12 12:41:56;;;;;;;2.40;1.50;;;27.90;43.10;;;;;;5044576;28;20813;-59
2023/07/12 12:44:28;;;;;;;4.10;1.63;;;27.60;42.30;;;;;;5043166;28;20441;-58
2023/07/12 12:46:57;;;;;;;5.50;2.10;;;27.10;43.10;;;;;;5045348;28;20533;-60
2023/07/12 12:49:26;;;;;;;4.77;1.83;;;26.80;43.30;;;;;;5039883;28;20536;-58
2023/07/12 12:51:55;;;;;;;4.57;2.47;;;26.80;43.80;;;;;;5037650;28;20464;-57
2023/07/12 12:54:22;;;;;;;2.33;1.80;;;27.10;44.10;;;;;;5037950;28;20476;-58
2023/07/12 12:56:50;;;;;;;3.30;2.13;;;27.20;44.10;;;;;;5038080;28;20475;-59
2023/07/12 12:59:18;;;;;;;4.27;2.10;;;27.40;43.80;;;;;;5038825;28;20449;-58